createdAt,value
2019-01-06T00:00:14.301Z,1020.57
2019-01-06T00:01:14.295Z,1020.59
2019-01-06T00:02:14.279Z,1020.61
2019-01-06T00:03:14.275Z,1020.60
2019-01-06T00:04:14.285Z,1020.60
2019-01-06T00:05:14.256Z,1020.58
2019-01-06T00:06:14.243Z,1020.59
2019-01-06T00:07:14.243Z,1020.53
2019-01-06T00:08:14.220Z,1020.52
2019-01-06T00:09:14.221Z,1020.54
2019-01-06T00:10:14.195Z,1020.52
2019-01-06T00:11:14.185Z,1020.55
2019-01-06T00:12:14.174Z,1020.58
2019-01-06T00:13:14.157Z,1020.58
2019-01-06T00:14:14.167Z,1020.61
2019-01-06T00:15:14.138Z,1020.63
2019-01-06T00:16:14.124Z,1020.68
2019-01-06T00:17:14.127Z,1020.64
2019-01-06T00:18:14.109Z,1020.60
2019-01-06T00:19:14.117Z,1020.65
2019-01-06T00:20:14.087Z,1020.64
2019-01-06T00:21:14.070Z,1020.70
2019-01-06T00:22:14.065Z,1020.70
2019-01-06T00:23:14.055Z,1020.66
2019-01-06T00:24:14.060Z,1020.67
2019-01-06T00:25:14.043Z,1020.66
2019-01-06T00:26:14.017Z,1020.63
2019-01-06T00:27:14.005Z,1020.67
2019-01-06T00:28:13.992Z,1020.65
2019-01-06T00:29:13.986Z,1020.66
2019-01-06T00:30:13.997Z,1020.68
2019-01-06T00:31:13.958Z,1020.71
2019-01-06T00:32:13.946Z,1020.70
2019-01-06T00:33:13.946Z,1020.70
2019-01-06T00:34:13.924Z,1020.74
2019-01-06T00:35:13.936Z,1020.67
2019-01-06T00:36:13.921Z,1020.67
2019-01-06T00:37:13.891Z,1020.65
2019-01-06T00:38:13.876Z,1020.69
2019-01-06T00:39:13.873Z,1020.70
2019-01-06T00:40:13.893Z,1020.72
2019-01-06T00:41:13.862Z,1020.74
2019-01-06T00:42:13.841Z,1020.80
2019-01-06T00:43:13.828Z,1020.80
2019-01-06T00:44:13.821Z,1020.80
2019-01-06T00:45:13.835Z,1020.77
2019-01-06T00:46:13.793Z,1020.78
2019-01-06T00:47:13.797Z,1020.83
2019-01-06T00:48:13.765Z,1020.81
2019-01-06T00:49:13.760Z,1020.87
2019-01-06T00:50:13.775Z,1020.82
2019-01-06T00:51:13.731Z,1020.80
2019-01-06T00:52:13.733Z,1020.76
2019-01-06T00:53:13.708Z,1020.81
2019-01-06T00:54:13.701Z,1020.81
2019-01-06T00:55:13.707Z,1020.79
2019-01-06T00:56:13.686Z,1020.88
2019-01-06T00:57:13.673Z,1020.85
2019-01-06T00:58:13.659Z,1020.87
2019-01-06T00:59:13.651Z,1020.89
2019-01-06T01:00:13.679Z,1020.92
2019-01-06T01:01:13.635Z,1020.93
2019-01-06T01:02:13.619Z,1020.94
2019-01-06T01:03:13.599Z,1020.89
2019-01-06T01:04:13.605Z,1020.89
2019-01-06T01:05:13.584Z,1020.86
2019-01-06T01:06:13.597Z,1020.88
2019-01-06T01:07:13.558Z,1020.91
2019-01-06T01:08:13.552Z,1020.88
2019-01-06T01:09:13.536Z,1020.89
2019-01-06T01:10:13.543Z,1020.87
2019-01-06T01:11:13.538Z,1020.84
2019-01-06T01:12:13.500Z,1020.89
2019-01-06T01:13:13.492Z,1020.84
2019-01-06T01:14:13.479Z,1020.86
2019-01-06T01:15:13.472Z,1020.85
2019-01-06T01:16:13.479Z,1020.86
2019-01-06T01:17:13.521Z,1020.88
2019-01-06T01:18:13.432Z,1020.90
2019-01-06T01:19:13.424Z,1020.90
2019-01-06T01:20:13.415Z,1020.92
2019-01-06T01:21:13.415Z,1020.92
2019-01-06T01:22:13.394Z,1020.97
2019-01-06T01:23:13.475Z,1020.99
2019-01-06T01:24:13.369Z,1021.01
2019-01-06T01:25:13.358Z,1020.96
2019-01-06T01:26:13.374Z,1020.94
2019-01-06T01:27:13.339Z,1020.94
2019-01-06T01:28:13.326Z,1020.95
2019-01-06T01:29:13.312Z,1020.96
2019-01-06T01:30:13.308Z,1020.99
2019-01-06T01:31:13.316Z,1021.03
2019-01-06T01:32:13.282Z,1021.02
2019-01-06T01:33:13.283Z,1021.03
2019-01-06T01:34:13.259Z,1021.05
2019-01-06T01:35:13.249Z,1021.05
2019-01-06T01:36:13.256Z,1021.08
2019-01-06T01:37:13.220Z,1021.09
2019-01-06T01:38:13.219Z,1021.08
2019-01-06T01:39:13.197Z,1021.09
2019-01-06T01:40:13.193Z,1021.14
2019-01-06T01:41:13.197Z,1021.17
2019-01-06T01:42:13.164Z,1021.20
2019-01-06T01:43:13.154Z,1021.17
2019-01-06T01:44:13.148Z,1021.16
2019-01-06T01:45:13.137Z,1021.23
2019-01-06T01:46:13.137Z,1021.22
2019-01-06T01:47:13.114Z,1021.23
2019-01-06T01:48:13.098Z,1021.20
2019-01-06T01:49:13.096Z,1021.19
2019-01-06T01:50:13.080Z,1021.17
2019-01-06T01:51:13.099Z,1021.19
2019-01-06T01:52:13.060Z,1021.17
2019-01-06T01:53:13.051Z,1021.21
2019-01-06T01:54:13.036Z,1021.20
2019-01-06T01:55:13.025Z,1021.21
2019-01-06T01:56:13.013Z,1021.24
2019-01-06T01:57:13.015Z,1021.23
2019-01-06T01:58:12.993Z,1021.24
2019-01-06T01:59:12.979Z,1021.23
2019-01-06T02:00:13.066Z,1021.29
2019-01-06T02:01:12.962Z,1021.33
2019-01-06T02:02:12.970Z,1021.27
2019-01-06T02:03:12.932Z,1021.32
2019-01-06T02:04:12.931Z,1021.32
2019-01-06T02:05:12.913Z,1021.30
2019-01-06T02:06:12.906Z,1021.30
2019-01-06T02:07:12.918Z,1021.34
2019-01-06T02:08:12.875Z,1021.35
2019-01-06T02:09:12.867Z,1021.38
2019-01-06T02:10:12.856Z,1021.41
2019-01-06T02:11:12.845Z,1021.40
2019-01-06T02:12:12.850Z,1021.40
2019-01-06T02:13:12.825Z,1021.41
2019-01-06T02:14:12.815Z,1021.43
2019-01-06T02:15:12.801Z,1021.44
2019-01-06T02:16:12.789Z,1021.48
2019-01-06T02:17:12.798Z,1021.47
2019-01-06T02:18:12.774Z,1021.47
2019-01-06T02:19:12.758Z,1021.52
2019-01-06T02:20:12.747Z,1021.50
2019-01-06T02:21:12.735Z,1021.53
2019-01-06T02:22:12.904Z,1021.52
2019-01-06T02:23:12.707Z,1021.53
2019-01-06T02:24:12.705Z,1021.57
2019-01-06T02:25:12.688Z,1021.54
2019-01-06T02:26:12.677Z,1021.55
2019-01-06T02:27:12.691Z,1021.50
2019-01-06T02:28:12.659Z,1021.52
2019-01-06T02:29:12.642Z,1021.54
2019-01-06T02:30:12.649Z,1021.52
2019-01-06T02:31:12.622Z,1021.55
2019-01-06T02:32:12.628Z,1021.50
2019-01-06T02:33:12.602Z,1021.50
2019-01-06T02:34:12.589Z,1021.49
2019-01-06T02:35:12.592Z,1021.55
2019-01-06T02:36:12.579Z,1021.50
2019-01-06T02:37:12.591Z,1021.51
2019-01-06T02:38:12.550Z,1021.50
2019-01-06T02:39:12.543Z,1021.51
2019-01-06T02:40:12.521Z,1021.52
2019-01-06T02:41:12.532Z,1021.53
2019-01-06T02:42:12.502Z,1021.53
2019-01-06T02:43:12.504Z,1021.53
2019-01-06T02:44:12.480Z,1021.55
2019-01-06T02:45:12.464Z,1021.50
2019-01-06T02:46:12.455Z,1021.54
2019-01-06T02:47:12.447Z,1021.57
2019-01-06T02:48:12.453Z,1021.54
2019-01-06T02:49:12.424Z,1021.57
2019-01-06T02:50:12.417Z,1021.58
2019-01-06T02:51:12.408Z,1021.59
2019-01-06T02:52:12.394Z,1021.59
2019-01-06T02:53:12.397Z,1021.59
2019-01-06T02:54:12.371Z,1021.58
2019-01-06T02:55:12.357Z,1021.59
2019-01-06T02:56:12.347Z,1021.65
2019-01-06T02:57:12.336Z,1021.65
2019-01-06T02:58:12.342Z,1021.66
2019-01-06T02:59:12.315Z,1021.65
2019-01-06T03:00:12.304Z,1021.66
2019-01-06T03:01:12.290Z,1021.66
2019-01-06T03:02:12.282Z,1021.70
2019-01-06T03:03:12.289Z,1021.72
2019-01-06T03:04:12.259Z,1021.71
2019-01-06T03:05:12.250Z,1021.70
2019-01-06T03:06:12.239Z,1021.71
2019-01-06T03:07:12.225Z,1021.69
2019-01-06T03:08:12.304Z,1021.74
2019-01-06T03:09:12.210Z,1021.75
2019-01-06T03:10:12.191Z,1021.75
2019-01-06T03:11:12.182Z,1021.72
2019-01-06T03:12:12.174Z,1021.74
2019-01-06T03:13:12.174Z,1021.75
2019-01-06T03:14:12.141Z,1021.70
2019-01-06T03:15:12.135Z,1021.74
2019-01-06T03:16:12.127Z,1021.75
2019-01-06T03:17:12.112Z,1021.78
2019-01-06T03:18:12.141Z,1021.76
2019-01-06T03:19:12.091Z,1021.79
2019-01-06T03:20:12.082Z,1021.76
2019-01-06T03:21:12.068Z,1021.81
2019-01-06T03:22:12.059Z,1021.82
2019-01-06T03:23:12.044Z,1021.80
2019-01-06T03:24:12.086Z,1021.77
2019-01-06T03:25:12.021Z,1021.83
2019-01-06T03:26:12.009Z,1021.81
2019-01-06T03:27:12.068Z,1021.78
2019-01-06T03:28:11.998Z,1021.82
2019-01-06T03:29:11.995Z,1021.74
2019-01-06T03:30:11.973Z,1021.70
2019-01-06T03:31:11.969Z,1021.74
2019-01-06T03:32:11.946Z,1021.75
2019-01-06T03:33:11.935Z,1021.75
2019-01-06T03:34:11.958Z,1021.72
2019-01-06T03:35:11.912Z,1021.74
2019-01-06T03:36:11.908Z,1021.73
2019-01-06T03:37:11.895Z,1021.70
2019-01-06T03:38:11.889Z,1021.73
2019-01-06T03:39:11.885Z,1021.73
2019-01-06T03:40:11.859Z,1021.74
2019-01-06T03:41:11.849Z,1021.72
2019-01-06T03:42:11.835Z,1021.71
2019-01-06T03:43:11.819Z,1021.77
2019-01-06T03:44:11.834Z,1021.79
2019-01-06T03:45:11.816Z,1021.79
2019-01-06T03:46:11.789Z,1021.83
2019-01-06T03:47:11.777Z,1021.82
2019-01-06T03:48:11.772Z,1021.78
2019-01-06T03:49:11.774Z,1021.78
2019-01-06T03:50:11.755Z,1021.77
2019-01-06T03:51:11.736Z,1021.79
2019-01-06T03:52:11.730Z,1021.79
2019-01-06T03:53:11.719Z,1021.78
2019-01-06T03:54:11.741Z,1021.79
2019-01-06T03:55:11.696Z,1021.75
2019-01-06T03:56:11.679Z,1021.72
2019-01-06T03:57:11.670Z,1021.76
2019-01-06T03:58:11.665Z,1021.74
2019-01-06T03:59:11.645Z,1021.79
2019-01-06T04:00:11.655Z,1021.79
2019-01-06T04:01:11.626Z,1021.87
2019-01-06T04:02:11.611Z,1021.86
2019-01-06T04:03:11.597Z,1021.86
2019-01-06T04:04:11.592Z,1021.90
2019-01-06T04:05:11.595Z,1021.87
2019-01-06T04:06:11.567Z,1021.84
2019-01-06T04:07:11.561Z,1021.88
2019-01-06T04:08:11.544Z,1021.88
2019-01-06T04:09:11.531Z,1021.81
2019-01-06T04:10:12.872Z,1021.83
2019-01-06T04:11:15.218Z,1021.83
2019-01-06T04:12:11.498Z,1021.87
2019-01-06T04:13:11.498Z,1021.86
2019-01-06T04:14:11.475Z,1021.89
2019-01-06T04:15:11.502Z,1021.91
2019-01-06T04:16:11.453Z,1021.93
2019-01-06T04:17:11.450Z,1021.91
2019-01-06T04:18:11.436Z,1021.92
2019-01-06T04:19:11.426Z,1021.94
2019-01-06T04:20:11.434Z,1021.96
2019-01-06T04:21:11.400Z,1021.96
2019-01-06T04:22:11.391Z,1021.95
2019-01-06T04:23:11.389Z,1022.00
2019-01-06T04:24:11.364Z,1021.95
2019-01-06T04:25:11.377Z,1021.95
2019-01-06T04:26:11.345Z,1021.98
2019-01-06T04:27:11.331Z,1022.01
2019-01-06T04:28:11.322Z,1022.04
2019-01-06T04:29:11.308Z,1022.00
2019-01-06T04:30:11.317Z,1022.03
2019-01-06T04:31:11.289Z,1021.96
2019-01-06T04:32:11.280Z,1021.93
2019-01-06T04:33:11.267Z,1021.89
2019-01-06T04:34:11.255Z,1021.87
2019-01-06T04:35:11.274Z,1021.89
2019-01-06T04:36:11.236Z,1021.84
2019-01-06T04:37:11.222Z,1021.86
2019-01-06T04:38:11.212Z,1021.83
2019-01-06T04:39:11.197Z,1021.89
2019-01-06T04:40:11.189Z,1021.87
2019-01-06T04:41:11.203Z,1021.88
2019-01-06T04:42:11.178Z,1021.90
2019-01-06T04:43:11.157Z,1021.89
2019-01-06T04:44:11.143Z,1021.89
2019-01-06T04:45:11.132Z,1021.91
2019-01-06T04:46:11.142Z,1021.93
2019-01-06T04:47:11.108Z,1021.96
2019-01-06T04:48:11.102Z,1021.93
2019-01-06T04:49:11.086Z,1021.94
2019-01-06T04:50:11.082Z,1021.91
2019-01-06T04:51:11.082Z,1021.92
2019-01-06T04:52:11.061Z,1021.88
2019-01-06T04:53:11.066Z,1021.95
2019-01-06T04:54:11.030Z,1021.97
2019-01-06T04:55:11.024Z,1021.99
2019-01-06T04:56:11.025Z,1021.98
2019-01-06T04:57:10.997Z,1021.97
2019-01-06T04:58:10.986Z,1021.93
2019-01-06T04:59:10.978Z,1022.00
2019-01-06T05:00:10.970Z,1022.02
2019-01-06T05:01:10.971Z,1022.01
2019-01-06T05:02:10.947Z,1022.01
2019-01-06T05:03:10.931Z,1022.01
2019-01-06T05:04:10.922Z,1021.99
2019-01-06T05:05:10.918Z,1021.95
2019-01-06T05:06:10.929Z,1022.00
2019-01-06T05:07:10.887Z,1022.02
2019-01-06T05:08:10.878Z,1022.04
2019-01-06T05:09:10.865Z,1022.02
2019-01-06T05:10:10.852Z,1022.04
2019-01-06T05:11:10.865Z,1022.00
2019-01-06T05:12:10.834Z,1022.08
2019-01-06T05:13:10.824Z,1022.03
2019-01-06T05:14:10.811Z,1021.98
2019-01-06T05:15:10.800Z,1022.02
2019-01-06T05:16:10.846Z,1022.01
2019-01-06T05:17:10.781Z,1021.99
2019-01-06T05:18:10.765Z,1022.04
2019-01-06T05:19:10.804Z,1022.07
2019-01-06T05:20:10.750Z,1022.10
2019-01-06T05:21:10.762Z,1022.13
2019-01-06T05:22:10.723Z,1022.14
2019-01-06T05:23:10.710Z,1022.15
2019-01-06T05:24:10.700Z,1022.12
2019-01-06T05:25:10.699Z,1022.05
2019-01-06T05:26:10.685Z,1022.10
2019-01-06T05:27:10.688Z,1022.11
2019-01-06T05:28:10.661Z,1022.07
2019-01-06T05:29:10.640Z,1022.13
2019-01-06T05:30:10.634Z,1022.09
2019-01-06T05:31:10.622Z,1022.11
2019-01-06T05:32:10.627Z,1022.13
2019-01-06T05:33:10.605Z,1022.11
2019-01-06T05:34:10.588Z,1022.10
2019-01-06T05:35:10.580Z,1022.11
2019-01-06T05:36:10.564Z,1022.14
2019-01-06T05:37:10.574Z,1022.12
2019-01-06T05:38:10.546Z,1022.16
2019-01-06T05:39:10.545Z,1022.13
2019-01-06T05:40:10.523Z,1022.17
2019-01-06T05:41:10.509Z,1022.18
2019-01-06T05:42:10.521Z,1022.22
2019-01-06T05:43:10.498Z,1022.28
2019-01-06T05:44:10.477Z,1022.26
2019-01-06T05:45:10.466Z,1022.27
2019-01-06T05:46:10.456Z,1022.31
2019-01-06T05:47:10.459Z,1022.31
2019-01-06T05:48:10.437Z,1022.32
2019-01-06T05:49:10.431Z,1022.36
2019-01-06T05:50:10.417Z,1022.34
2019-01-06T05:51:10.398Z,1022.37
2019-01-06T05:52:10.403Z,1022.38
2019-01-06T05:53:10.381Z,1022.41
2019-01-06T05:54:10.365Z,1022.43
2019-01-06T05:55:10.352Z,1022.41
2019-01-06T05:56:10.352Z,1022.43
2019-01-06T05:57:10.355Z,1022.46
2019-01-06T05:58:10.323Z,1022.46
2019-01-06T05:59:10.309Z,1022.51
2019-01-06T06:00:10.304Z,1022.53
2019-01-06T06:01:10.283Z,1022.56
2019-01-06T06:02:10.294Z,1022.61
2019-01-06T06:03:10.268Z,1022.59
2019-01-06T06:04:10.256Z,1022.60
2019-01-06T06:05:10.246Z,1022.63
2019-01-06T06:06:10.233Z,1022.61
2019-01-06T06:07:11.487Z,1022.59
2019-01-06T06:08:10.214Z,1022.60
2019-01-06T06:09:10.199Z,1022.64
2019-01-06T06:10:10.186Z,1022.65
2019-01-06T06:11:10.179Z,1022.62
2019-01-06T06:12:10.163Z,1022.68
2019-01-06T06:13:10.181Z,1022.68
2019-01-06T06:14:10.143Z,1022.66
2019-01-06T06:15:10.132Z,1022.64
2019-01-06T06:16:10.122Z,1022.69
2019-01-06T06:17:10.106Z,1022.70
2019-01-06T06:18:10.120Z,1022.70
2019-01-06T06:19:10.088Z,1022.66
2019-01-06T06:20:10.077Z,1022.70
2019-01-06T06:21:10.066Z,1022.74
2019-01-06T06:22:10.056Z,1022.75
2019-01-06T06:23:10.058Z,1022.80
2019-01-06T06:24:10.032Z,1022.78
2019-01-06T06:25:10.031Z,1022.83
2019-01-06T06:26:10.007Z,1022.80
2019-01-06T06:27:09.995Z,1022.80
2019-01-06T06:28:10.004Z,1022.85
2019-01-06T06:29:09.990Z,1022.83
2019-01-06T06:30:09.964Z,1022.84
2019-01-06T06:31:09.952Z,1022.85
2019-01-06T06:32:09.937Z,1022.84
2019-01-06T06:33:09.949Z,1022.84
2019-01-06T06:34:09.924Z,1022.84
2019-01-06T06:35:09.912Z,1022.86
2019-01-06T06:36:09.900Z,1022.90
2019-01-06T06:37:09.887Z,1022.90
2019-01-06T06:38:09.895Z,1022.89
2019-01-06T06:39:09.868Z,1022.88
2019-01-06T06:40:09.856Z,1022.95
2019-01-06T06:41:09.843Z,1022.97
2019-01-06T06:42:09.831Z,1022.98
2019-01-06T06:43:09.836Z,1022.93
2019-01-06T06:44:09.809Z,1023.03
2019-01-06T06:45:09.804Z,1023.00
2019-01-06T06:46:09.791Z,1022.97
2019-01-06T06:47:09.779Z,1022.99
2019-01-06T06:48:09.792Z,1023.00
2019-01-06T06:49:09.753Z,1022.95
2019-01-06T06:50:09.741Z,1022.99
2019-01-06T06:51:09.732Z,1023.03
2019-01-06T06:52:09.725Z,1023.03
2019-01-06T06:53:09.707Z,1023.09
2019-01-06T06:54:09.720Z,1023.08
2019-01-06T06:55:09.686Z,1023.06
2019-01-06T06:56:09.681Z,1023.08
2019-01-06T06:57:09.663Z,1023.07
2019-01-06T06:58:09.651Z,1023.08
2019-01-06T06:59:09.659Z,1023.06
2019-01-06T07:00:09.639Z,1023.06
2019-01-06T07:01:09.625Z,1023.08
2019-01-06T07:02:09.619Z,1023.09
2019-01-06T07:03:09.598Z,1023.09
2019-01-06T07:04:09.609Z,1023.10
2019-01-06T07:05:09.578Z,1023.13
2019-01-06T07:06:09.574Z,1023.14
2019-01-06T07:07:09.560Z,1023.14
2019-01-06T07:08:09.546Z,1023.15
2019-01-06T07:09:09.557Z,1023.14
2019-01-06T07:10:09.520Z,1023.20
2019-01-06T07:11:09.509Z,1023.21
2019-01-06T07:12:09.501Z,1023.19
2019-01-06T07:13:09.490Z,1023.17
2019-01-06T07:14:09.512Z,1023.20
2019-01-06T07:15:09.469Z,1023.24
2019-01-06T07:16:09.460Z,1023.27
2019-01-06T07:17:09.445Z,1023.21
2019-01-06T07:18:09.441Z,1023.23
2019-01-06T07:19:09.436Z,1023.21
2019-01-06T07:20:09.421Z,1023.26
2019-01-06T07:21:09.409Z,1023.27
2019-01-06T07:22:09.386Z,1023.27
2019-01-06T07:23:09.379Z,1023.29
2019-01-06T07:24:09.384Z,1023.32
2019-01-06T07:25:09.360Z,1023.31
2019-01-06T07:26:09.345Z,1023.33
2019-01-06T07:27:09.333Z,1023.28
2019-01-06T07:28:09.327Z,1023.35
2019-01-06T07:29:09.343Z,1023.39
2019-01-06T07:30:09.297Z,1023.38
2019-01-06T07:31:09.293Z,1023.40
2019-01-06T07:32:09.278Z,1023.42
2019-01-06T07:33:09.270Z,1023.47
2019-01-06T07:34:09.255Z,1023.44
2019-01-06T07:35:09.263Z,1023.41
2019-01-06T07:36:09.232Z,1023.42
2019-01-06T07:37:09.288Z,1023.42
2019-01-06T07:38:09.216Z,1023.48
2019-01-06T07:39:09.201Z,1023.45
2019-01-06T07:40:09.206Z,1023.45
2019-01-06T07:41:09.177Z,1023.48
2019-01-06T07:42:09.163Z,1023.53
2019-01-06T07:43:09.157Z,1023.53
2019-01-06T07:44:09.142Z,1023.53
2019-01-06T07:45:09.152Z,1023.55
2019-01-06T07:46:09.118Z,1023.56
2019-01-06T07:47:09.112Z,1023.54
2019-01-06T07:48:09.100Z,1023.57
2019-01-06T07:49:09.088Z,1023.55
2019-01-06T07:50:09.093Z,1023.54
2019-01-06T07:51:09.065Z,1023.59
2019-01-06T07:52:09.056Z,1023.56
2019-01-06T07:53:09.041Z,1023.57
2019-01-06T07:54:09.031Z,1023.54
2019-01-06T07:55:09.042Z,1023.55
2019-01-06T07:56:09.014Z,1023.54
2019-01-06T07:57:09.000Z,1023.56
2019-01-06T07:58:08.991Z,1023.58
2019-01-06T07:59:08.978Z,1023.57
2019-01-06T08:00:15.200Z,1023.59
2019-01-06T08:01:09.952Z,1023.60
2019-01-06T08:02:08.945Z,1023.57
2019-01-06T08:03:08.933Z,1023.62
2019-01-06T08:04:08.922Z,1023.64
2019-01-06T08:05:08.937Z,1023.66
2019-01-06T08:06:08.900Z,1023.67
2019-01-06T08:07:08.892Z,1023.69
2019-01-06T08:08:08.873Z,1023.67
2019-01-06T08:09:08.863Z,1023.71
2019-01-06T08:10:08.879Z,1023.72
2019-01-06T08:11:08.844Z,1023.76
2019-01-06T08:12:08.831Z,1023.72
2019-01-06T08:13:08.828Z,1023.70
2019-01-06T08:14:08.808Z,1023.64
2019-01-06T08:15:08.830Z,1023.70
2019-01-06T08:16:08.788Z,1023.66
2019-01-06T08:17:08.775Z,1023.65
2019-01-06T08:18:08.771Z,1023.69
2019-01-06T08:19:08.752Z,1023.73
2019-01-06T08:20:08.766Z,1023.69
2019-01-06T08:21:08.734Z,1023.68
2019-01-06T08:22:08.719Z,1023.72
2019-01-06T08:23:08.713Z,1023.71
2019-01-06T08:24:08.708Z,1023.68
2019-01-06T08:25:08.703Z,1023.70
2019-01-06T08:26:08.674Z,1023.73
2019-01-06T08:27:08.666Z,1023.74
2019-01-06T08:28:08.654Z,1023.76
2019-01-06T08:29:08.643Z,1023.78
2019-01-06T08:30:08.648Z,1023.76
2019-01-06T08:31:08.623Z,1023.74
2019-01-06T08:32:08.609Z,1023.83
2019-01-06T08:33:08.597Z,1023.78
2019-01-06T08:34:08.590Z,1023.77
2019-01-06T08:35:08.596Z,1023.81
2019-01-06T08:36:08.568Z,1023.85
2019-01-06T08:37:08.552Z,1023.82
2019-01-06T08:38:08.548Z,1023.85
2019-01-06T08:39:08.532Z,1023.86
2019-01-06T08:40:08.547Z,1023.88
2019-01-06T08:41:08.510Z,1023.89
2019-01-06T08:42:08.496Z,1023.93
2019-01-06T08:43:08.489Z,1023.92
2019-01-06T08:44:08.476Z,1023.96
2019-01-06T08:45:08.469Z,1023.97
2019-01-06T08:46:08.472Z,1023.96
2019-01-06T08:47:08.444Z,1023.97
2019-01-06T08:48:08.438Z,1024.00
2019-01-06T08:49:08.425Z,1024.00
2019-01-06T08:50:08.406Z,1023.99
2019-01-06T08:51:08.422Z,1024.04
2019-01-06T08:52:08.387Z,1024.03
2019-01-06T08:53:08.388Z,1024.01
2019-01-06T08:54:08.362Z,1024.00
2019-01-06T08:55:08.357Z,1024.02
2019-01-06T08:56:08.368Z,1024.02
2019-01-06T08:57:08.341Z,1024.09
2019-01-06T08:58:08.319Z,1024.11
2019-01-06T08:59:08.314Z,1024.10
2019-01-06T09:00:08.301Z,1024.09
2019-01-06T09:01:08.307Z,1024.04
2019-01-06T09:02:08.274Z,1024.07
2019-01-06T09:03:08.264Z,1024.07
2019-01-06T09:04:08.253Z,1024.07
2019-01-06T09:05:08.240Z,1024.09
2019-01-06T09:06:08.253Z,1024.12
2019-01-06T09:07:08.223Z,1024.09
2019-01-06T09:08:08.214Z,1024.12
2019-01-06T09:09:08.202Z,1024.04
2019-01-06T09:10:08.190Z,1024.06
2019-01-06T09:11:08.193Z,1024.04
2019-01-06T09:12:08.164Z,1024.07
2019-01-06T09:13:08.149Z,1024.03
2019-01-06T09:14:08.141Z,1024.06
2019-01-06T09:15:08.129Z,1024.09
2019-01-06T09:16:08.148Z,1024.05
2019-01-06T09:17:08.108Z,1024.10
2019-01-06T09:18:08.100Z,1024.09
2019-01-06T09:19:08.081Z,1024.16
2019-01-06T09:20:08.070Z,1024.16
2019-01-06T09:21:08.088Z,1024.12
2019-01-06T09:22:08.050Z,1024.09
2019-01-06T09:23:08.038Z,1024.15
2019-01-06T09:24:08.032Z,1024.16
2019-01-06T09:25:08.015Z,1024.14
2019-01-06T09:26:08.001Z,1024.13
2019-01-06T09:27:08.010Z,1024.07
2019-01-06T09:28:07.979Z,1024.08
2019-01-06T09:29:07.974Z,1024.06
2019-01-06T09:30:07.960Z,1024.09
2019-01-06T09:31:07.955Z,1024.02
2019-01-06T09:32:07.964Z,1024.03
2019-01-06T09:33:07.928Z,1024.07
2019-01-06T09:34:07.912Z,1024.06
2019-01-06T09:35:07.908Z,1024.03
2019-01-06T09:36:07.895Z,1023.98
2019-01-06T09:37:07.911Z,1023.99
2019-01-06T09:38:07.872Z,1024.02
2019-01-06T09:39:07.860Z,1024.03
2019-01-06T09:40:07.850Z,1024.04
2019-01-06T09:41:07.843Z,1023.97
2019-01-06T09:42:07.849Z,1023.99
2019-01-06T09:43:07.818Z,1024.00
2019-01-06T09:44:07.805Z,1024.00
2019-01-06T09:45:07.790Z,1023.98
2019-01-06T09:46:07.780Z,1024.03
2019-01-06T09:47:07.798Z,1024.03
2019-01-06T09:48:07.758Z,1024.01
2019-01-06T09:49:07.752Z,1024.06
2019-01-06T09:50:07.739Z,1024.07
2019-01-06T09:51:07.745Z,1024.09
2019-01-06T09:52:07.714Z,1024.09
2019-01-06T09:53:07.727Z,1024.10
2019-01-06T09:54:07.697Z,1024.11
2019-01-06T09:55:07.680Z,1024.14
2019-01-06T09:56:07.670Z,1024.10
2019-01-06T09:57:07.659Z,1024.13
2019-01-06T09:58:07.681Z,1024.14
2019-01-06T09:59:07.638Z,1024.13
2019-01-06T10:00:07.650Z,1024.09
2019-01-06T10:01:07.617Z,1024.09
2019-01-06T10:02:07.604Z,1024.08
2019-01-06T10:03:07.608Z,1024.02
2019-01-06T10:04:07.584Z,1023.99
2019-01-06T10:05:07.572Z,1024.02
2019-01-06T10:06:07.565Z,1024.03
2019-01-06T10:07:07.548Z,1024.00
2019-01-06T10:08:07.561Z,1023.95
2019-01-06T10:09:07.528Z,1024.00
2019-01-06T10:10:07.512Z,1024.00
2019-01-06T10:11:07.513Z,1024.00
2019-01-06T10:12:07.505Z,1024.01
2019-01-06T10:13:07.504Z,1024.01
2019-01-06T10:14:07.478Z,1023.99
2019-01-06T10:15:07.501Z,1023.99
2019-01-06T10:16:07.445Z,1024.02
2019-01-06T10:17:07.444Z,1024.01
2019-01-06T10:18:07.444Z,1024.05
2019-01-06T10:19:07.417Z,1024.05
2019-01-06T10:20:07.399Z,1024.04
2019-01-06T10:21:07.392Z,1024.04
2019-01-06T10:22:07.384Z,1024.05
2019-01-06T10:23:07.399Z,1024.06
2019-01-06T10:24:07.354Z,1024.04
2019-01-06T10:25:07.359Z,1024.04
2019-01-06T10:26:07.337Z,1024.08
2019-01-06T10:27:07.347Z,1024.13
2019-01-06T10:28:07.348Z,1024.14
2019-01-06T10:29:07.313Z,1024.07
2019-01-06T10:30:07.287Z,1024.07
2019-01-06T10:31:07.277Z,1024.08
2019-01-06T10:32:07.270Z,1024.08
2019-01-06T10:33:07.325Z,1024.04
2019-01-06T10:34:07.283Z,1024.07
2019-01-06T10:35:07.237Z,1024.04
2019-01-06T10:36:07.225Z,1023.98
2019-01-06T10:37:07.218Z,1023.98
2019-01-06T10:38:07.249Z,1023.98
2019-01-06T10:39:07.192Z,1024.00
2019-01-06T10:40:07.180Z,1023.95
2019-01-06T10:41:07.164Z,1024.00
2019-01-06T10:42:07.158Z,1024.03
2019-01-06T10:43:07.180Z,1023.99
2019-01-06T10:44:07.134Z,1023.98
2019-01-06T10:45:07.120Z,1024.02
2019-01-06T10:46:07.108Z,1024.00
2019-01-06T10:47:07.104Z,1023.96
2019-01-06T10:48:07.111Z,1024.00
2019-01-06T10:49:07.080Z,1023.99
2019-01-06T10:50:07.078Z,1023.97
2019-01-06T10:51:07.054Z,1023.96
2019-01-06T10:52:07.052Z,1023.96
2019-01-06T10:53:07.050Z,1024.01
2019-01-06T10:54:07.045Z,1023.94
2019-01-06T10:55:07.014Z,1023.99
2019-01-06T10:56:07.000Z,1023.99
2019-01-06T10:57:06.986Z,1023.95
2019-01-06T10:58:06.974Z,1023.94
2019-01-06T10:59:06.985Z,1023.93
2019-01-06T11:00:06.953Z,1023.96
2019-01-06T11:01:06.945Z,1023.93
2019-01-06T11:02:06.926Z,1023.92
2019-01-06T11:03:06.916Z,1023.98
2019-01-06T11:04:06.940Z,1023.94
2019-01-06T11:05:06.893Z,1023.94
2019-01-06T11:06:06.887Z,1023.96
2019-01-06T11:07:06.880Z,1023.94
2019-01-06T11:08:06.861Z,1023.97
2019-01-06T11:09:06.871Z,1024.00
2019-01-06T11:10:06.857Z,1023.98
2019-01-06T11:11:06.828Z,1023.95
2019-01-06T11:12:06.819Z,1023.93
2019-01-06T11:13:06.806Z,1023.93
2019-01-06T11:14:06.814Z,1023.98
2019-01-06T11:15:06.791Z,1023.99
2019-01-06T11:16:06.771Z,1024.00
2019-01-06T11:17:06.769Z,1024.01
2019-01-06T11:18:06.758Z,1023.98
2019-01-06T11:19:06.770Z,1023.98
2019-01-06T11:20:06.724Z,1023.98
2019-01-06T11:21:06.726Z,1023.93
2019-01-06T11:22:06.706Z,1024.00
2019-01-06T11:23:06.701Z,1023.99
2019-01-06T11:24:06.774Z,1023.94
2019-01-06T11:25:06.672Z,1023.95
2019-01-06T11:26:06.660Z,1024.00
2019-01-06T11:27:06.650Z,1023.99
2019-01-06T11:28:06.650Z,1023.97
2019-01-06T11:29:06.630Z,1023.97
2019-01-06T11:30:06.650Z,1023.96
2019-01-06T11:31:06.601Z,1023.95
2019-01-06T11:32:06.599Z,1023.97
2019-01-06T11:33:06.584Z,1023.95
2019-01-06T11:34:06.569Z,1023.96
2019-01-06T11:35:06.582Z,1023.91
2019-01-06T11:36:06.549Z,1023.93
2019-01-06T11:37:06.541Z,1023.90
2019-01-06T11:38:06.560Z,1023.89
2019-01-06T11:39:06.517Z,1023.86
2019-01-06T11:40:06.523Z,1023.85
2019-01-06T11:41:08.020Z,1023.89
2019-01-06T11:42:06.485Z,1023.85
2019-01-06T11:43:06.471Z,1023.86
2019-01-06T11:44:06.461Z,1023.77
2019-01-06T11:45:06.469Z,1023.78
2019-01-06T11:46:06.452Z,1023.76
2019-01-06T11:47:06.446Z,1023.84
2019-01-06T11:48:06.416Z,1023.80
2019-01-06T11:49:06.408Z,1023.83
2019-01-06T11:50:06.431Z,1023.82
2019-01-06T11:51:06.387Z,1023.80
2019-01-06T11:52:06.385Z,1023.80
2019-01-06T11:53:06.373Z,1023.77
2019-01-06T11:54:06.365Z,1023.83
2019-01-06T11:55:06.352Z,1023.82
2019-01-06T11:56:06.329Z,1023.79
2019-01-06T11:57:06.313Z,1023.83
2019-01-06T11:58:06.334Z,1023.82
2019-01-06T11:59:06.311Z,1023.81
2019-01-06T12:00:06.353Z,1023.81
2019-01-06T12:01:06.311Z,1023.79
2019-01-06T12:02:06.284Z,1023.84
2019-01-06T12:03:06.257Z,1023.84
2019-01-06T12:04:06.237Z,1023.86
2019-01-06T12:05:06.240Z,1023.84